createdAt,value
2023-08-22T00:00:35.951Z,100.00
2023-08-22T00:03:05.959Z,100.00
2023-08-22T00:05:36.137Z,100.00
2023-08-22T00:08:06.520Z,100.00
2023-08-22T00:10:35.017Z,100.00
2023-08-22T00:13:03.919Z,100.00
2023-08-22T00:15:32.657Z,100.00
2023-08-22T00:18:00.729Z,100.00
2023-08-22T00:20:30.530Z,100.00
2023-08-22T00:22:58.744Z,100.00
2023-08-22T00:25:27.017Z,100.00
2023-08-22T00:27:58.004Z,100.00
2023-08-22T00:30:26.017Z,100.00
2023-08-22T00:32:53.971Z,100.00
2023-08-22T00:35:25.929Z,100.00
2023-08-22T00:37:55.283Z,100.00
2023-08-22T00:40:23.264Z,100.00
2023-08-22T00:42:51.550Z,100.00
2023-08-22T00:45:19.763Z,100.00
2023-08-22T00:47:47.897Z,100.00
2023-08-22T00:50:15.974Z,100.00
2023-08-22T00:52:44.068Z,100.00
2023-08-22T00:55:14.796Z,100.00
2023-08-22T00:57:43.708Z,100.00
2023-08-22T01:00:12.246Z,100.00
2023-08-22T01:02:42.651Z,100.00
2023-08-22T01:05:12.077Z,100.00
2023-08-22T01:07:47.906Z,100.00
2023-08-22T01:10:21.362Z,100.00
2023-08-22T01:12:59.885Z,100.00
2023-08-22T01:15:29.496Z,100.00
2023-08-22T01:17:59.651Z,100.00
2023-08-22T01:20:28.864Z,100.00
2023-08-22T01:22:59.336Z,100.00
2023-08-22T01:25:28.532Z,100.00
2023-08-22T01:28:10.643Z,100.00
2023-08-22T01:30:49.089Z,100.00
2023-08-22T01:33:25.106Z,100.00
2023-08-22T01:35:56.949Z,100.00
2023-08-22T01:38:30.089Z,100.00
2023-08-22T01:40:59.346Z,100.00
2023-08-22T01:43:27.270Z,100.00
2023-08-22T01:45:55.468Z,100.00
2023-08-22T01:48:23.421Z,100.00
2023-08-22T01:50:51.503Z,100.00
2023-08-22T01:53:19.440Z,100.00
2023-08-22T01:55:48.731Z,100.00
2023-08-22T01:58:16.633Z,100.00
2023-08-22T02:00:44.519Z,100.00
2023-08-22T02:03:12.711Z,100.00
2023-08-22T02:05:40.671Z,100.00
2023-08-22T02:08:08.550Z,100.00
2023-08-22T02:10:36.488Z,100.00
2023-08-22T02:13:06.063Z,100.00
2023-08-22T02:15:34.154Z,100.00
2023-08-22T02:18:03.404Z,100.00
2023-08-22T02:20:31.760Z,100.00
2023-08-22T02:22:59.824Z,100.00
2023-08-22T02:25:28.514Z,100.00
2023-08-22T02:27:56.712Z,100.00
2023-08-22T02:30:26.480Z,100.00
2023-08-22T02:32:54.641Z,100.00
2023-08-22T02:35:22.588Z,100.00
2023-08-22T02:37:52.552Z,100.00
2023-08-22T02:40:20.730Z,100.00
2023-08-22T02:42:48.656Z,100.00
2023-08-22T02:45:16.934Z,100.00
2023-08-22T02:47:46.362Z,100.00
2023-08-22T02:50:14.460Z,100.00
2023-08-22T02:52:42.392Z,100.00
2023-08-22T02:55:10.723Z,100.00
2023-08-22T02:57:38.922Z,100.00
2023-08-22T03:00:09.387Z,97.50
2023-08-22T03:02:37.449Z,99.41
2023-08-22T03:05:08.913Z,100.00
2023-08-22T03:07:37.569Z,100.00
2023-08-22T03:10:05.954Z,100.00
2023-08-22T03:12:33.874Z,100.00
2023-08-22T03:15:05.621Z,100.00
2023-08-22T03:17:33.581Z,100.00
2023-08-22T03:20:02.847Z,100.00
2023-08-22T03:22:32.131Z,100.00
2023-08-22T03:25:00.058Z,100.00
2023-08-22T03:27:27.983Z,100.00
2023-08-22T03:29:55.827Z,100.00
2023-08-22T03:32:24.713Z,100.00
2023-08-22T03:34:53.313Z,100.00
2023-08-22T03:37:21.195Z,100.00
2023-08-22T03:39:50.457Z,100.00
2023-08-22T03:42:18.297Z,100.00
2023-08-22T03:44:46.948Z,100.00
2023-08-22T03:47:15.083Z,100.00
2023-08-22T03:49:43.162Z,100.00
2023-08-22T03:52:11.159Z,100.00
2023-08-22T03:55:06.511Z,94.90
2023-08-22T03:57:34.416Z,94.53
2023-08-22T04:00:02.363Z,99.29
2023-08-22T04:02:30.407Z,100.00
2023-08-22T04:04:59.124Z,100.00
2023-08-22T04:07:27.420Z,100.00
2023-08-22T04:09:55.358Z,100.00
2023-08-22T04:12:25.066Z,100.00
2023-08-22T04:14:53.144Z,100.00
2023-08-22T04:17:21.318Z,100.00
2023-08-22T04:19:49.462Z,100.00
2023-08-22T04:22:17.506Z,100.00
2023-08-22T04:24:45.480Z,94.38
2023-08-22T04:27:14.346Z,96.48
2023-08-22T04:29:44.142Z,98.41
2023-08-22T04:32:12.249Z,100.00
2023-08-22T04:34:42.991Z,100.00
2023-08-22T04:37:10.922Z,95.25
2023-08-22T04:39:38.959Z,94.79
2023-08-22T04:42:07.931Z,93.51
2023-08-22T04:44:35.830Z,91.71
2023-08-22T04:47:05.578Z,91.11
2023-08-22T04:49:33.485Z,90.12
2023-08-22T04:52:01.431Z,90.77
2023-08-22T04:54:29.316Z,88.19
2023-08-22T04:56:57.362Z,88.14
2023-08-22T04:59:25.559Z,87.62
2023-08-22T05:01:54.098Z,89.27
2023-08-22T05:04:23.613Z,91.50
2023-08-22T05:06:51.601Z,92.36
2023-08-22T05:09:19.811Z,92.44
2023-08-22T05:11:47.700Z,92.45
2023-08-22T05:14:15.641Z,90.29
2023-08-22T05:16:44.857Z,92.82
2023-08-22T05:19:12.832Z,91.55
2023-08-22T05:21:42.254Z,90.26
2023-08-22T05:24:10.203Z,90.04
2023-08-22T05:26:38.104Z,90.59
2023-08-22T05:29:05.929Z,92.60
2023-08-22T05:31:34.200Z,94.64
2023-08-22T05:34:04.014Z,94.24
2023-08-22T05:36:33.533Z,97.10
2023-08-22T05:39:05.697Z,98.48
2023-08-22T05:41:33.589Z,99.95
2023-08-22T05:44:01.592Z,100.00
2023-08-22T05:46:32.148Z,100.00
2023-08-22T05:49:00.295Z,100.00
2023-08-22T05:51:28.562Z,100.00
2023-08-22T05:53:56.569Z,99.33
2023-08-22T05:56:25.840Z,95.39
2023-08-22T05:58:54.041Z,94.11
2023-08-22T06:01:22.540Z,92.43
2023-08-22T06:03:50.776Z,91.82
2023-08-22T06:06:18.688Z,91.31
2023-08-22T06:08:46.578Z,91.21
2023-08-22T06:11:14.433Z,91.50
2023-08-22T06:13:43.934Z,91.45
2023-08-22T06:16:12.346Z,90.58
2023-08-22T06:18:40.320Z,89.53
2023-08-22T06:21:08.219Z,90.07
2023-08-22T06:23:36.150Z,90.92
2023-08-22T06:26:04.117Z,90.36
2023-08-22T06:28:35.504Z,89.95
2023-08-22T06:31:13.412Z,89.37
2023-08-22T06:33:41.562Z,90.23
2023-08-22T06:36:10.068Z,90.42
2023-08-22T06:38:38.775Z,90.76
2023-08-22T06:41:06.979Z,91.61
2023-08-22T06:43:34.901Z,90.59
2023-08-22T06:46:04.273Z,88.57
2023-08-22T06:48:41.824Z,87.39
2023-08-22T06:51:10.598Z,86.00
2023-08-22T06:53:38.691Z,84.39
2023-08-22T06:56:06.622Z,85.64
2023-08-22T06:58:34.653Z,87.56
2023-08-22T07:01:06.677Z,88.33
2023-08-22T07:03:34.774Z,90.17
2023-08-22T07:06:03.190Z,89.97
2023-08-22T07:08:31.215Z,89.25
2023-08-22T07:11:03.394Z,86.86
2023-08-22T07:13:31.414Z,83.90
2023-08-22T07:15:59.329Z,83.79
2023-08-22T07:18:29.564Z,83.15
2023-08-22T07:20:57.546Z,83.12
2023-08-22T07:23:25.519Z,82.95
2023-08-22T07:25:53.870Z,83.61
2023-08-22T07:28:21.795Z,83.26
2023-08-22T07:30:49.970Z,83.30
2023-08-22T07:33:18.019Z,83.14
2023-08-22T07:35:47.685Z,83.32
2023-08-22T07:38:15.622Z,81.99
2023-08-22T07:40:44.782Z,82.72
2023-08-22T07:43:13.524Z,83.66
2023-08-22T07:45:41.616Z,84.00
2023-08-22T07:48:09.628Z,82.52
2023-08-22T07:50:37.766Z,82.99
2023-08-22T07:53:08.249Z,82.64
2023-08-22T07:55:36.339Z,81.33
2023-08-22T07:58:04.339Z,79.49
2023-08-22T08:00:32.288Z,78.29
2023-08-22T08:03:00.722Z,76.67
2023-08-22T08:05:28.624Z,75.43
2023-08-22T08:07:56.699Z,74.69
2023-08-22T08:10:26.066Z,73.17
2023-08-22T08:12:54.201Z,72.99
2023-08-22T08:15:22.275Z,72.95
2023-08-22T08:17:50.265Z,72.34
2023-08-22T08:20:18.303Z,70.41
2023-08-22T08:22:46.458Z,69.83
2023-08-22T08:25:15.256Z,69.69
2023-08-22T08:27:47.239Z,67.85
2023-08-22T08:30:17.435Z,68.13
2023-08-22T08:32:46.004Z,67.81
2023-08-22T08:35:14.367Z,68.09
2023-08-22T08:37:42.628Z,68.17
2023-08-22T08:40:11.345Z,68.10
2023-08-22T08:42:39.716Z,69.12
2023-08-22T08:45:09.704Z,69.91
2023-08-22T08:47:38.869Z,69.21
2023-08-22T08:50:08.520Z,69.47
2023-08-22T08:52:36.606Z,70.38
2023-08-22T08:55:06.638Z,70.71
2023-08-22T08:57:34.620Z,68.21
2023-08-22T09:00:03.537Z,68.91
2023-08-22T09:02:33.346Z,69.36
2023-08-22T09:05:01.507Z,70.49
2023-08-22T09:07:30.025Z,68.49
2023-08-22T09:09:59.586Z,67.89
2023-08-22T09:12:34.717Z,68.99
2023-08-22T09:15:02.744Z,70.03
2023-08-22T09:17:32.644Z,69.89
2023-08-22T09:20:00.777Z,70.04
2023-08-22T09:22:32.426Z,69.09
2023-08-22T09:25:00.474Z,69.29
2023-08-22T09:27:28.804Z,67.98
2023-08-22T09:30:07.213Z,68.57
2023-08-22T09:32:36.581Z,66.94
2023-08-22T09:35:07.402Z,66.78
2023-08-22T09:37:36.525Z,65.08
2023-08-22T09:40:06.824Z,65.56
2023-08-22T09:42:35.686Z,66.26
2023-08-22T09:45:07.258Z,65.60
2023-08-22T09:47:42.152Z,65.93
2023-08-22T09:50:13.194Z,66.34
2023-08-22T09:52:42.612Z,65.84
2023-08-22T09:55:13.208Z,64.42
2023-08-22T09:57:41.854Z,64.50
2023-08-22T10:00:12.287Z,64.99
2023-08-22T10:02:42.261Z,65.01
2023-08-22T10:05:11.634Z,65.28
2023-08-22T10:07:40.707Z,66.25
2023-08-22T10:10:09.921Z,68.74
2023-08-22T10:12:39.584Z,71.08
2023-08-22T10:15:09.812Z,72.51
2023-08-22T10:17:41.497Z,72.37
2023-08-22T10:20:13.462Z,72.72
2023-08-22T10:22:41.471Z,73.50
2023-08-22T10:25:09.911Z,74.35
2023-08-22T10:27:39.564Z,75.05
2023-08-22T10:30:21.046Z,73.87
2023-08-22T10:33:17.000Z,73.11
2023-08-22T10:36:04.141Z,71.78
2023-08-22T10:38:49.282Z,69.83
2023-08-22T10:41:17.237Z,70.08
2023-08-22T10:43:45.214Z,72.10
2023-08-22T10:46:14.031Z,69.62
2023-08-22T10:48:43.565Z,70.46
2023-08-22T10:51:11.948Z,69.04
2023-08-22T10:53:44.097Z,68.74
2023-08-22T10:56:20.698Z,67.59
2023-08-22T10:58:59.650Z,65.91
2023-08-22T11:01:28.022Z,66.39
2023-08-22T11:03:58.204Z,64.56
2023-08-22T11:06:27.004Z,64.98
2023-08-22T11:08:55.380Z,64.74
2023-08-22T11:11:23.570Z,64.57
2023-08-22T11:13:51.550Z,62.54
2023-08-22T11:16:20.841Z,63.39
2023-08-22T11:18:50.521Z,63.40
2023-08-22T11:21:19.952Z,64.74
2023-08-22T11:23:47.926Z,63.37
2023-08-22T11:26:21.942Z,63.49
2023-08-22T11:28:50.206Z,63.08
2023-08-22T11:31:19.209Z,63.80
2023-08-22T11:33:48.666Z,61.66
2023-08-22T11:36:16.950Z,60.33
2023-08-22T11:38:49.220Z,61.03
2023-08-22T11:41:17.341Z,61.62
2023-08-22T11:43:52.824Z,60.70
2023-08-22T11:46:25.867Z,62.71
2023-08-22T11:48:54.702Z,61.28
2023-08-22T11:51:24.979Z,62.37
2023-08-22T11:53:57.721Z,60.14
2023-08-22T11:56:25.748Z,59.05
2023-08-22T11:58:54.394Z,61.76
2023-08-22T12:01:24.200Z,61.20
2023-08-22T12:03:57.326Z,60.51
2023-08-22T12:06:25.932Z,60.86
2023-08-22T12:09:03.988Z,62.33
2023-08-22T12:11:36.011Z,60.78
2023-08-22T12:14:04.560Z,61.75
2023-08-22T12:16:32.823Z,61.75
2023-08-22T12:19:14.608Z,61.15
2023-08-22T12:21:42.676Z,62.33
2023-08-22T12:24:12.139Z,61.12
2023-08-22T12:26:49.382Z,60.72
2023-08-22T12:29:35.008Z,61.08
2023-08-22T12:32:09.568Z,59.83
2023-08-22T12:34:47.689Z,60.25
2023-08-22T12:37:22.036Z,59.67
2023-08-22T12:39:52.468Z,59.94
2023-08-22T12:46:00.544Z,61.32
2023-08-22T12:48:39.844Z,61.60
2023-08-22T12:51:11.558Z,62.39
2023-08-22T12:53:55.432Z,64.03
2023-08-22T12:56:38.767Z,62.69
2023-08-22T12:59:12.831Z,63.27
2023-08-22T13:01:56.546Z,63.39
2023-08-22T13:04:27.117Z,63.55
2023-08-22T13:06:56.371Z,62.91
2023-08-22T13:09:24.567Z,62.02
2023-08-22T13:11:55.526Z,62.19
2023-08-22T13:14:27.807Z,63.72
2023-08-22T13:17:02.265Z,62.73
2023-08-22T13:19:41.634Z,64.08
2023-08-22T13:22:11.202Z,62.52
2023-08-22T13:24:55.181Z,62.76
2023-08-22T13:27:31.080Z,63.02
2023-08-22T13:30:18.921Z,63.65
2023-08-22T13:33:01.605Z,63.95
2023-08-22T13:35:30.639Z,62.51
2023-08-22T13:38:06.010Z,62.60
2023-08-22T13:40:52.825Z,62.89
2023-08-22T13:43:22.899Z,63.91
2023-08-22T13:45:57.551Z,64.78
2023-08-22T13:48:40.300Z,64.80
2023-08-22T13:51:11.377Z,64.45
2023-08-22T13:53:39.361Z,64.43
2023-08-22T13:56:08.448Z,63.75
2023-08-22T13:58:37.794Z,65.13
2023-08-22T14:01:07.347Z,64.49
2023-08-22T14:03:35.765Z,63.41
2023-08-22T14:06:05.092Z,64.72
2023-08-22T14:08:33.012Z,63.29
2023-08-22T14:11:01.641Z,61.81
2023-08-22T14:13:29.947Z,62.16
2023-08-22T14:15:59.529Z,63.38
2023-08-22T14:18:27.658Z,63.51
2023-08-22T14:20:55.664Z,62.97
2023-08-22T14:23:26.326Z,62.76
2023-08-22T14:25:57.455Z,63.54
2023-08-22T14:28:25.423Z,62.58
2023-08-22T14:31:01.443Z,62.15
2023-08-22T14:33:29.637Z,62.32
2023-08-22T14:35:58.250Z,62.47
2023-08-22T14:38:26.264Z,61.99
2023-08-22T14:40:55.678Z,61.07
2023-08-22T14:43:23.874Z,63.64
2023-08-22T14:45:52.717Z,63.48
2023-08-22T14:48:22.284Z,63.74
2023-08-22T14:50:53.890Z,62.66
2023-08-22T14:53:28.029Z,62.76
2023-08-22T14:56:00.703Z,62.32
2023-08-22T14:58:29.383Z,62.68
2023-08-22T15:01:00.274Z,62.28
2023-08-22T15:03:29.757Z,63.21
2023-08-22T15:05:57.656Z,63.67
2023-08-22T15:08:25.599Z,62.37
2023-08-22T15:10:55.132Z,61.56
2023-08-22T15:13:23.065Z,62.23
2023-08-22T15:15:54.865Z,61.33
2023-08-22T15:18:23.377Z,62.16
2023-08-22T15:20:53.593Z,64.31
2023-08-22T15:23:23.565Z,64.24
2023-08-22T15:25:54.392Z,63.21
2023-08-22T15:28:23.216Z,62.52
2023-08-22T15:31:08.875Z,64.35
2023-08-22T15:33:37.236Z,64.34
2023-08-22T15:36:07.071Z,64.43
2023-08-22T15:38:37.360Z,63.19
2023-08-22T15:41:07.087Z,64.22
2023-08-22T15:43:35.256Z,63.73
2023-08-22T15:46:03.421Z,64.43
2023-08-22T15:48:31.304Z,64.37
2023-08-22T15:50:59.854Z,63.42
2023-08-22T15:53:29.269Z,64.00
2023-08-22T15:55:57.420Z,65.91
2023-08-22T15:58:26.060Z,64.95
2023-08-22T16:00:53.986Z,64.94
2023-08-22T16:03:21.952Z,66.03
2023-08-22T16:05:49.974Z,68.40
2023-08-22T16:08:17.972Z,67.41
2023-08-22T16:10:47.234Z,66.75
2023-08-22T16:13:15.689Z,64.19
2023-08-22T16:15:49.256Z,65.87
2023-08-22T16:18:17.396Z,63.21
2023-08-22T16:20:46.159Z,63.52
2023-08-22T16:23:14.144Z,65.53
2023-08-22T16:25:44.054Z,65.42
2023-08-22T16:28:13.358Z,64.38
2023-08-22T16:30:42.782Z,65.97
2023-08-22T16:33:11.004Z,65.51
2023-08-22T16:35:39.732Z,65.51
2023-08-22T16:38:07.828Z,65.41
2023-08-22T16:40:35.741Z,64.81
2023-08-22T16:43:06.878Z,63.63
2023-08-22T16:45:36.166Z,65.98
2023-08-22T16:48:04.307Z,63.83
2023-08-22T16:50:32.279Z,66.57
2023-08-22T16:53:02.576Z,65.67
2023-08-22T16:55:33.120Z,66.78
2023-08-22T16:58:00.958Z,67.51
2023-08-22T17:00:28.958Z,69.19
2023-08-22T17:02:58.268Z,67.71
2023-08-22T17:05:27.263Z,68.93
2023-08-22T17:07:58.900Z,70.40
2023-08-22T17:10:27.312Z,70.86
2023-08-22T17:12:55.540Z,71.00
2023-08-22T17:15:26.602Z,71.77
2023-08-22T17:17:55.029Z,72.05
2023-08-22T17:20:26.716Z,72.43
2023-08-22T17:22:54.828Z,74.21
2023-08-22T17:25:27.109Z,75.06
2023-08-22T17:27:56.869Z,75.09
2023-08-22T17:30:25.909Z,75.59
2023-08-22T17:32:55.648Z,75.01
2023-08-22T17:35:25.001Z,75.31
2023-08-22T17:37:52.896Z,75.96
2023-08-22T17:40:20.787Z,77.45
2023-08-22T17:42:48.663Z,78.53
2023-08-22T17:45:17.396Z,78.92
2023-08-22T17:47:45.848Z,78.27
2023-08-22T17:50:14.455Z,78.88
2023-08-22T17:52:43.845Z,79.78
2023-08-22T17:55:12.466Z,82.38
2023-08-22T17:57:41.002Z,83.07
2023-08-22T18:00:13.070Z,84.99
2023-08-22T18:02:41.236Z,84.71
2023-08-22T18:05:09.864Z,83.37
2023-08-22T18:07:38.315Z,83.80
2023-08-22T18:10:16.003Z,84.39
2023-08-22T18:12:44.037Z,86.56
2023-08-22T18:15:12.450Z,87.31
2023-08-22T18:17:40.608Z,87.24
2023-08-22T18:20:11.428Z,87.93
2023-08-22T18:22:40.238Z,87.04
2023-08-22T18:25:10.614Z,86.97
2023-08-22T18:27:39.090Z,86.89
2023-08-22T18:30:08.561Z,87.68
2023-08-22T18:32:36.616Z,89.72
2023-08-22T18:35:05.349Z,89.34
2023-08-22T18:37:34.506Z,89.61
2023-08-22T18:40:02.723Z,89.80
2023-08-22T18:42:32.066Z,89.91
2023-08-22T18:45:05.111Z,89.72
2023-08-22T18:47:33.169Z,89.77
2023-08-22T18:50:04.469Z,90.02
2023-08-22T18:52:33.666Z,91.58
2023-08-22T18:55:03.161Z,92.93
2023-08-22T18:57:32.638Z,92.33
2023-08-22T19:00:00.661Z,91.12
2023-08-22T19:02:28.681Z,90.75
2023-08-22T19:04:56.857Z,90.37
2023-08-22T19:07:28.557Z,90.03
2023-08-22T19:09:56.802Z,90.17
2023-08-22T19:12:24.930Z,90.42
2023-08-22T19:14:54.437Z,90.68
2023-08-22T19:17:22.910Z,91.12
2023-08-22T19:19:53.468Z,91.88
2023-08-22T19:22:21.540Z,92.14
2023-08-22T19:24:50.180Z,93.57
2023-08-22T19:27:20.385Z,96.00
2023-08-22T19:29:50.934Z,96.29
2023-08-22T19:32:35.061Z,95.81
2023-08-22T19:35:09.573Z,96.35
2023-08-22T19:37:37.597Z,94.41
2023-08-22T19:40:06.180Z,89.72
2023-08-22T19:42:34.155Z,87.08
2023-08-22T19:45:03.088Z,85.15
2023-08-22T19:47:32.980Z,84.20
2023-08-22T19:50:06.332Z,84.24
2023-08-22T19:52:34.433Z,84.49
2023-08-22T19:55:02.854Z,84.71
2023-08-22T19:57:31.172Z,85.29
2023-08-22T19:59:59.438Z,83.87
2023-08-22T20:02:31.082Z,81.89
2023-08-22T20:05:00.645Z,80.50
2023-08-22T20:07:28.705Z,79.63
2023-08-22T20:09:56.752Z,78.54
2023-08-22T20:12:24.816Z,80.21
2023-08-22T20:14:52.955Z,81.51
2023-08-22T20:17:20.964Z,81.85
2023-08-22T20:19:49.096Z,82.33
2023-08-22T20:22:18.627Z,82.72
2023-08-22T20:24:46.707Z,82.98
2023-08-22T20:27:14.654Z,82.94
2023-08-22T20:29:42.646Z,80.77
2023-08-22T20:32:10.755Z,80.40
2023-08-22T20:34:38.846Z,80.00
2023-08-22T20:37:06.859Z,83.49
2023-08-22T20:39:36.659Z,85.29
2023-08-22T20:42:05.132Z,87.79
2023-08-22T20:44:33.095Z,85.64
2023-08-22T20:47:01.122Z,83.85
2023-08-22T20:49:29.548Z,83.73
2023-08-22T20:51:57.563Z,83.28
2023-08-22T20:54:28.468Z,82.34
2023-08-22T20:56:57.965Z,81.54
2023-08-22T20:59:26.008Z,81.30
2023-08-22T21:01:54.059Z,81.74
2023-08-22T21:04:24.544Z,82.43
2023-08-22T21:06:52.580Z,81.69
2023-08-22T21:09:20.558Z,83.01
2023-08-22T21:11:48.630Z,86.00
2023-08-22T21:14:18.145Z,88.28
2023-08-22T21:16:46.310Z,88.47
2023-08-22T21:19:14.390Z,88.73
2023-08-22T21:21:42.470Z,88.02
2023-08-22T21:24:12.184Z,86.58
2023-08-22T21:26:41.687Z,85.05
2023-08-22T21:29:10.766Z,83.72
2023-08-22T21:31:40.656Z,83.32
2023-08-22T21:34:08.912Z,82.92
2023-08-22T21:36:36.907Z,83.01
2023-08-22T21:39:05.205Z,82.72
2023-08-22T21:41:33.287Z,83.76
2023-08-22T21:44:01.341Z,84.20
2023-08-22T21:46:29.397Z,88.35
2023-08-22T21:48:58.901Z,90.86
2023-08-22T21:51:26.923Z,93.08
2023-08-22T21:53:54.878Z,95.61
2023-08-22T21:56:23.092Z,98.94
2023-08-22T21:58:51.092Z,100.00
2023-08-22T22:01:19.260Z,100.00
2023-08-22T22:03:47.302Z,100.00
2023-08-22T22:06:17.652Z,100.00
2023-08-22T22:08:45.660Z,100.00
2023-08-22T22:11:13.683Z,100.00
2023-08-22T22:13:41.734Z,100.00
2023-08-22T22:16:09.875Z,100.00
2023-08-22T22:18:38.280Z,100.00
2023-08-22T22:21:06.949Z,100.00
2023-08-22T22:23:36.401Z,100.00
2023-08-22T22:26:07.246Z,100.00
2023-08-22T22:28:38.295Z,100.00
2023-08-22T22:31:10.261Z,100.00
2023-08-22T22:33:38.817Z,100.00
2023-08-22T22:36:07.680Z,100.00
2023-08-22T22:38:37.292Z,100.00
2023-08-22T22:41:06.954Z,100.00
2023-08-22T22:43:35.018Z,100.00
2023-08-22T22:46:03.452Z,100.00
2023-08-22T22:48:31.587Z,100.00
2023-08-22T22:50:59.667Z,100.00
2023-08-22T22:53:27.818Z,100.00
2023-08-22T22:55:57.311Z,100.00
2023-08-22T22:58:26.124Z,100.00
2023-08-22T23:00:54.219Z,100.00
2023-08-22T23:03:23.495Z,100.00
2023-08-22T23:05:51.724Z,100.00
2023-08-22T23:08:20.072Z,100.00
2023-08-22T23:10:48.104Z,100.00
2023-08-22T23:13:18.048Z,100.00
2023-08-22T23:15:46.173Z,100.00
2023-08-22T23:18:14.169Z,100.00
2023-08-22T23:20:42.275Z,100.00
2023-08-22T23:23:10.414Z,100.00
2023-08-22T23:25:38.416Z,100.00
2023-08-22T23:28:07.181Z,100.00
2023-08-22T23:30:36.607Z,100.00
2023-08-22T23:33:04.879Z,100.00
2023-08-22T23:35:32.833Z,100.00
2023-08-22T23:38:00.847Z,100.00
2023-08-22T23:40:30.412Z,100.00
2023-08-22T23:42:58.880Z,100.00
2023-08-22T23:45:28.814Z,100.00
2023-08-22T23:47:59.587Z,100.00
2023-08-22T23:50:28.079Z,100.00
2023-08-22T23:52:56.610Z,100.00
2023-08-22T23:55:24.916Z,100.00
2023-08-22T23:57:52.974Z,100.00
